KPIE/PIE METAR and TAF weather

Enter ICAO airport designator
Station Type Date Time Source
KPIE METAR 2020/09/19 04:53 UTC NOAA

KPIE 190453Z AUTO 00000KT 10SM CLR 27/24 A2991 RMK AO2 SLP129 T02670244 403110256 $


Station Type Date Time Source
KPIE Decoded METAR 2020/09/19 04:53 UTC NOAA

ST PETERSBURG/CLEARWATER, FL, United States (KPIE) 27-55N 82-41W 4M
Sep 19, 2020 - 12:53 AM EDT / 2020.09.19 0453 UTC
Wind: Calm:0
Visibility: 10 mile(s):0
Sky conditions: clear
Temperature: 80.1 F (26.7 C)
Dew Point: 75.9 F (24.4 C)
Relative Humidity: 87%
Pressure (altimeter): 29.91 in. Hg (1012 hPa)
ob: KPIE 190453Z AUTO 00000KT 10SM CLR 27/24 A2991 RMK AO2 SLP129 T02670244 403110256
cycle: 5

Station Type Date Time Source
KPIE TAF 2020/09/19 06:24 UTC NOAA

TAF KPIE 190521Z 1906/2006 03005KT P6SM FEW250
FM191300 06006KT P6SM FEW030 SCT250
FM191800 02006KT P6SM VCTS SCT040CB BKN250
FM192100 34011KT P6SM VCTS SCT040CB BKN250
FM200000 04010KT P6SM SCT050 BKN250

Example: see airport list